Time;durP1;ratioP1;P1;durP2;ratioP2;P2;SDS_P1;SDS_P2;PMS_P1;PMS_P2;Temp;Humidity;BMP_temperature;BMP_pressure;BME280_temperature;BME280_humidity;BME280_pressure;Samples;Min_cycle;Max_cycle;Signal;HPM_P1;HPM_P2
2021/05/27 00:00:35;;;;;;;9.10;5.07;;;16.40;44.20;;;;;;4917079;28;20042;-92
2021/05/27 00:03:02;;;;;;;6.32;4.70;;;16.50;44.50;;;;;;4916480;28;20421;-94
2021/05/27 00:05:28;;;;;;;9.10;4.47;;;16.40;44.60;;;;;;4936244;28;20046;-93
2021/05/27 00:07:55;;;;;;;7.35;5.00;;;16.40;44.70;;;;;;4939671;28;20101;-95
2021/05/27 00:10:24;;;;;;;12.50;4.97;;;16.50;44.80;;;;;;4953929;28;20058;-91
2021/05/27 00:12:51;;;;;;;9.82;4.97;;;16.50;44.80;;;;;;4962304;28;20038;-92
2021/05/27 00:15:18;;;;;;;;;;;16.50;44.80;;;;;;4970117;28;20058;-94
2021/05/27 00:17:45;;;;;;;8.95;4.93;;;16.50;44.70;;;;;;4970194;28;19929;-92
2021/05/27 00:20:12;;;;;;;7.38;5.03;;;16.60;44.50;;;;;;4935008;28;20109;-93
2021/05/27 00:22:38;;;;;;;10.15;4.90;;;16.50;44.70;;;;;;4950003;28;20051;-92
2021/05/27 00:25:09;;;;;;;6.50;4.75;;;16.50;44.90;;;;;;4912497;28;20053;-94
2021/05/27 00:27:35;;;;;;;9.88;5.10;;;16.50;45.00;;;;;;4934119;28;20545;-93
2021/05/27 00:30:06;;;;;;;9.68;5.22;;;16.50;45.10;;;;;;4919478;28;20054;-92
2021/05/27 00:32:32;;;;;;;14.10;5.00;;;16.50;45.40;;;;;;4911096;28;20030;-92
2021/05/27 00:35:00;;;;;;;9.90;5.53;;;16.50;45.70;;;;;;4922772;28;20048;-92
2021/05/27 00:37:26;;;;;;;15.20;5.32;;;16.50;45.70;;;;;;4954182;28;20033;-90
2021/05/27 00:39:52;;;;;;;9.77;5.07;;;16.50;45.80;;;;;;4938177;28;20014;-94
2021/05/27 00:42:18;;;;;;;9.68;5.07;;;16.40;45.80;;;;;;4934957;28;20057;-93
2021/05/27 00:45:00;;;;;;;10.90;5.30;;;16.40;45.90;;;;;;4949261;28;20522;-91
2021/05/27 00:47:26;;;;;;;13.20;5.25;;;16.30;46.10;;;;;;4921815;28;20533;-91
2021/05/27 00:49:53;;;;;;;7.18;5.20;;;16.30;46.30;;;;;;4902654;29;20105;-96
2021/05/27 00:52:19;;;;;;;11.00;5.07;;;16.30;46.50;;;;;;4921840;28;20039;-94
2021/05/27 00:54:47;;;;;;;9.82;5.05;;;16.30;46.70;;;;;;4917072;28;20177;-90
2021/05/27 00:57:36;;;;;;;8.63;5.10;;;16.30;46.80;;;;;;4935628;28;20050;-91
2021/05/27 01:00:09;;;;;;;9.35;5.63;;;16.20;46.70;;;;;;4956903;28;20054;-91
2021/05/27 01:02:37;;;;;;;9.45;5.40;;;16.20;46.80;;;;;;4949773;28;20039;-93
2021/05/27 01:05:05;;;;;;;6.60;5.13;;;16.10;46.90;;;;;;4932011;28;20057;-92
2021/05/27 01:07:32;;;;;;;9.23;5.10;;;16.10;47.00;;;;;;4916422;28;20046;-90
2021/05/27 01:09:58;;;;;;;10.20;5.47;;;16.10;47.10;;;;;;4916724;28;20038;-91
2021/05/27 01:12:25;;;;;;;12.77;5.38;;;16.10;47.30;;;;;;4901860;29;20544;-90
2021/05/27 01:17:37;;;;;;;13.75;6.25;;;16.10;47.50;;;;;;4921179;29;20046;-90
2021/05/27 01:20:08;;;;;;;;;;;16.20;47.50;;;;;;4916792;29;20093;-90
2021/05/27 01:22:34;;;;;;;14.68;5.28;;;16.20;47.40;;;;;;4964265;28;20231;-90
2021/05/27 01:25:00;;;;;;;9.48;5.25;;;16.20;47.00;;;;;;4934579;28;20101;-91
2021/05/27 01:27:27;;;;;;;9.80;4.90;;;16.20;47.00;;;;;;4901563;29;20038;-92
2021/05/27 01:30:17;;;;;;;13.93;5.38;;;16.20;47.10;;;;;;4949610;29;20113;-95
2021/05/27 01:32:44;;;;;;;14.88;6.22;;;16.20;47.20;;;;;;4920387;29;20034;-90
2021/05/27 01:35:16;;;;;;;18.35;5.95;;;16.20;47.20;;;;;;4916661;29;20050;-90
2021/05/27 01:37:45;;;;;;;12.25;5.45;;;16.20;47.20;;;;;;4937268;28;20038;-92
2021/05/27 01:40:13;;;;;;;13.88;6.22;;;16.30;47.40;;;;;;4936534;29;20122;-91
2021/05/27 01:42:39;;;;;;;12.73;5.70;;;16.30;47.50;;;;;;4917759;29;20137;-92
2021/05/27 01:45:06;;;;;;;18.95;6.70;;;16.40;47.50;;;;;;4917394;29;20081;-93
2021/05/27 01:47:33;;;;;;;13.88;6.32;;;16.50;47.50;;;;;;4915940;29;20038;-93
2021/05/27 01:49:59;;;;;;;22.63;7.45;;;16.60;47.50;;;;;;4932019;29;20069;-92
2021/05/27 01:52:25;;;;;;;15.75;6.20;;;16.70;47.40;;;;;;4901929;29;20042;-92
2021/05/27 01:54:52;;;;;;;16.17;5.65;;;16.80;47.40;;;;;;4918231;29;20030;-92
2021/05/27 01:57:18;;;;;;;15.25;5.75;;;16.90;47.20;;;;;;4917096;29;20066;-91
2021/05/27 01:59:44;;;;;;;17.05;6.05;;;17.10;47.00;;;;;;4948168;29;20066;-92
2021/05/27 02:02:11;;;;;;;19.23;6.82;;;17.20;48.10;;;;;;4932720;28;20058;-91
2021/05/27 02:04:37;;;;;;;19.15;5.63;;;17.40;46.90;;;;;;4932786;28;20034;-91
2021/05/27 02:07:15;;;;;;;12.00;5.60;;;17.80;48.40;;;;;;4918278;28;20038;-91
2021/05/27 02:09:42;;;;;;;12.77;5.70;;;18.40;46.80;;;;;;4947573;29;20039;-92
2021/05/27 02:12:09;;;;;;;17.98;5.75;;;19.00;46.30;;;;;;4933344;29;20437;-92
2021/05/27 02:14:35;;;;;;;17.58;5.60;;;19.60;45.30;;;;;;4918456;29;20042;-91
2021/05/27 02:17:01;;;;;;;17.83;6.13;;;20.20;44.30;;;;;;4902055;29;20473;-91
2021/05/27 02:19:28;;;;;;;14.82;5.82;;;20.80;43.10;;;;;;4932968;29;20548;-89
2021/05/27 02:21:54;;;;;;;;;;;21.40;41.80;;;;;;4948615;29;20113;-91
2021/05/27 02:24:21;;;;;;;14.27;5.75;;;22.00;41.20;;;;;;4949124;28;19957;-90
2021/05/27 02:26:47;;;;;;;;;;;22.50;39.90;;;;;;4952825;29;20417;-91
2021/05/27 02:29:14;;;;;;;16.27;6.05;;;23.10;39.20;;;;;;4952509;28;19952;-92
2021/05/27 02:31:40;;;;;;;17.58;6.43;;;23.50;37.50;;;;;;4919454;28;20104;-93
2021/05/27 02:34:07;;;;;;;26.70;7.45;;;24.00;35.80;;;;;;4922104;28;20038;-91
2021/05/27 02:36:33;;;;;;;15.93;6.70;;;24.40;34.30;;;;;;4905022;28;20429;-92
2021/05/27 02:38:59;;;;;;;;;;;24.80;33.30;;;;;;4937681;28;20110;-91
2021/05/27 02:41:25;;;;;;;19.77;6.95;;;24.90;33.00;;;;;;4952935;28;19926;-90
2021/05/27 02:43:52;;;;;;;;;;;24.90;32.30;;;;;;4920517;29;20050;-92
2021/05/27 02:46:18;;;;;;;21.85;7.40;;;24.80;32.60;;;;;;4935954;28;19992;-92
2021/05/27 02:48:45;;;;;;;16.17;8.07;;;24.50;32.10;;;;;;4919681;28;20071;-93
2021/05/27 02:51:11;;;;;;;15.43;8.30;;;24.30;31.80;;;;;;4936729;28;20049;-94
2021/05/27 02:53:37;;;;;;;;;;;24.00;31.90;;;;;;4922130;29;20039;-93
2021/05/27 02:56:04;;;;;;;23.33;9.02;;;23.80;32.30;;;;;;4936010;28;20004;-91
2021/05/27 02:58:30;;;;;;;20.33;9.23;;;23.70;32.50;;;;;;4922411;28;20046;-91
2021/05/27 03:00:56;;;;;;;22.30;10.82;;;23.50;32.60;;;;;;4929130;28;20129;-91
2021/05/27 03:03:23;;;;;;;22.05;10.55;;;23.40;32.50;;;;;;4958428;28;20054;-91
2021/05/27 03:05:49;;;;;;;20.75;11.02;;;23.20;32.50;;;;;;4921741;28;20073;-91
2021/05/27 03:08:16;;;;;;;;;;;23.10;32.60;;;;;;4921743;28;20062;-92
2021/05/27 03:10:43;;;;;;;15.38;10.57;;;23.00;32.90;;;;;;4951583;28;19926;-93
2021/05/27 03:13:09;;;;;;;18.50;10.75;;;23.00;33.00;;;;;;4919758;28;20117;-93
2021/05/27 03:15:36;;;;;;;23.10;11.43;;;22.90;33.20;;;;;;4920160;28;20039;-93
2021/05/27 03:18:07;;;;;;;26.00;11.73;;;22.80;33.20;;;;;;4923304;28;20049;-92
2021/05/27 03:20:36;;;;;;;22.88;12.27;;;22.80;33.30;;;;;;4924617;28;20030;-92
2021/05/27 03:23:03;;;;;;;20.73;12.35;;;22.80;33.40;;;;;;4939620;28;20034;-92
2021/05/27 03:25:30;;;;;;;17.95;11.68;;;22.70;33.50;;;;;;4929998;28;20043;-92
2021/05/27 03:27:57;;;;;;;22.27;11.82;;;22.70;33.70;;;;;;4930352;28;20082;-93
2021/05/27 03:30:23;;;;;;;;;;;22.70;33.50;;;;;;4931465;28;20042;-92
2021/05/27 03:32:51;;;;;;;19.63;10.50;;;22.60;33.50;;;;;;4963304;28;19945;-93
2021/05/27 03:35:17;;;;;;;20.23;9.70;;;22.60;33.50;;;;;;4928350;28;20419;-92
2021/05/27 03:37:44;;;;;;;21.02;10.15;;;22.60;33.30;;;;;;4923459;28;20042;-93
2021/05/27 03:40:14;;;;;;;18.05;9.55;;;22.60;33.20;;;;;;4921923;28;20101;-92
2021/05/27 03:42:53;;;;;;;16.67;9.88;;;22.50;33.30;;;;;;4942958;28;20056;-92
2021/05/27 03:45:31;;;;;;;15.82;9.50;;;22.50;33.10;;;;;;4911015;28;20050;-91
2021/05/27 03:47:58;;;;;;;18.98;10.07;;;22.50;33.30;;;;;;4928496;28;20065;-93
2021/05/27 03:50:26;;;;;;;;;;;22.50;33.40;;;;;;4923342;29;20034;-92
2021/05/27 03:52:52;;;;;;;18.25;10.30;;;22.50;33.40;;;;;;4955128;28;19929;-94
2021/05/27 03:55:20;;;;;;;;;;;22.50;33.10;;;;;;4952200;28;20038;-92
2021/05/27 03:57:47;;;;;;;16.35;10.15;;;22.60;33.20;;;;;;4953378;28;19960;-93
2021/05/27 04:03:03;;;;;;;16.10;8.70;;;22.70;33.10;;;;;;4948661;28;20038;-90
2021/05/27 04:08:15;;;;;;;22.35;9.05;;;22.90;32.70;;;;;;4936111;28;20042;-90
2021/05/27 04:10:41;;;;;;;14.57;7.95;;;23.00;32.60;;;;;;4949551;28;20103;-87
2021/05/27 04:13:07;;;;;;;20.95;8.80;;;23.00;32.40;;;;;;4915652;28;20039;-88
2021/05/27 04:15:35;;;;;;;;;;;23.10;32.20;;;;;;4925890;29;20038;-86
2021/05/27 04:18:15;;;;;;;15.20;8.30;;;23.20;32.40;;;;;;4968322;28;19942;-86
2021/05/27 04:20:54;;;;;;;15.48;8.20;;;23.30;32.30;;;;;;4944038;28;20073;-86
2021/05/27 04:23:39;;;;;;;19.55;8.80;;;23.40;31.80;;;;;;4955915;28;20039;-89
2021/05/27 04:26:15;;;;;;;18.48;9.35;;;23.50;32.00;;;;;;4935371;28;20084;-88
2021/05/27 04:28:43;;;;;;;20.15;9.45;;;23.60;31.90;;;;;;4916572;28;20058;-88
2021/05/27 04:31:18;;;;;;;18.77;10.95;;;23.70;31.50;;;;;;4932998;28;20433;-88
2021/05/27 04:33:44;;;;;;;21.08;11.73;;;23.80;31.30;;;;;;4918620;29;20106;-90
2021/05/27 04:36:15;;;;;;;18.40;10.55;;;23.90;31.40;;;;;;4929625;29;20042;-85
2021/05/27 04:38:42;;;;;;;25.23;12.48;;;24.00;31.20;;;;;;4927885;29;20039;-86
2021/05/27 04:41:08;;;;;;;19.70;11.23;;;24.20;31.00;;;;;;4929391;29;20035;-91
2021/05/27 04:43:40;;;;;;;;;;;24.50;30.20;;;;;;4914222;29;20110;-87
2021/05/27 04:46:07;;;;;;;23.70;14.02;;;25.00;30.00;;;;;;4932926;29;20004;-89
2021/05/27 04:59:16;;;;;;;17.95;8.38;;;32.70;21.40;;;;;;5461601;23;20043;-87
2021/05/27 05:01:42;;;;;;;21.13;9.65;;;34.20;19.60;;;;;;4905165;29;20122;-88
2021/05/27 05:04:09;;;;;;;14.85;7.78;;;35.20;18.10;;;;;;4890257;29;20074;-92
2021/05/27 05:06:35;;;;;;;16.05;7.60;;;36.20;16.70;;;;;;4858930;29;20096;-87
2021/05/27 05:09:02;;;;;;;10.43;8.23;;;37.00;15.50;;;;;;4903379;29;20118;-90
2021/05/27 05:11:28;;;;;;;16.45;8.88;;;37.60;14.40;;;;;;4891145;29;20043;-90
2021/05/27 05:13:55;;;;;;;15.57;7.60;;;37.80;14.10;;;;;;4890188;29;20047;-89
2021/05/27 05:16:21;;;;;;;13.90;7.43;;;38.10;13.90;;;;;;4873861;29;20049;-88
2021/05/27 05:18:48;;;;;;;11.90;5.97;;;38.70;13.30;;;;;;4904103;29;20070;-90
2021/05/27 05:21:14;;;;;;;12.70;5.20;;;39.20;12.50;;;;;;4877065;29;20048;-88
2021/05/27 05:23:40;;;;;;;10.77;5.45;;;39.60;11.90;;;;;;4876487;29;20550;-88
2021/05/27 05:26:06;;;;;;;12.50;5.78;;;40.00;11.60;;;;;;4907432;29;20043;-88
2021/05/27 05:28:32;;;;;;;6.78;4.28;;;40.40;11.40;;;;;;4905493;29;20047;-89
2021/05/27 05:30:59;;;;;;;8.85;3.80;;;40.90;10.80;;;;;;4906920;29;20538;-89
2021/05/27 05:33:25;;;;;;;8.55;3.30;;;41.40;11.40;;;;;;4909315;29;20053;-88
2021/05/27 05:35:52;;;;;;;9.13;2.80;;;41.90;9.60;;;;;;4906436;29;20629;-87
2021/05/27 05:38:18;;;;;;;8.55;4.22;;;42.30;9.30;;;;;;4890185;29;20044;-89
2021/05/27 05:40:47;;;;;;;5.90;2.45;;;42.60;9.20;;;;;;4910489;29;20035;-86
2021/05/27 05:43:34;;;;;;;;;;;;;;;;;;;;;
2021/05/27 05:46:03;;;;;;;5.43;1.70;;;43.50;8.20;;;;;;4908851;29;20048;-88
2021/05/27 05:48:29;;;;;;;7.03;1.60;;;44.20;7.60;;;;;;4908334;29;20062;-84
2021/05/27 05:51:00;;;;;;;8.48;1.63;;;44.40;6.90;;;;;;4911396;29;20046;-88
2021/05/27 05:53:27;;;;;;;8.38;1.90;;;44.70;6.80;;;;;;4911050;29;20035;-88
2021/05/27 05:55:54;;;;;;;3.45;1.48;;;44.90;6.30;;;;;;4892700;29;20160;-86
2021/05/27 05:58:23;;;;;;;6.47;1.85;;;44.70;6.00;;;;;;4911410;29;20106;-90
2021/05/27 06:00:55;;;;;;;5.82;2.10;;;44.70;6.20;;;;;;4899600;29;20047;-92
2021/05/27 06:03:23;;;;;;;3.28;1.42;;;44.80;6.10;;;;;;4923223;29;20182;-91
2021/05/27 06:05:52;;;;;;;6.68;1.77;;;45.00;6.10;;;;;;4916174;29;20047;-89
2021/05/27 06:08:23;;;;;;;3.40;1.40;;;45.10;5.70;;;;;;4903096;29;20047;-93
2021/05/27 06:10:49;;;;;;;4.65;1.30;;;45.40;5.90;;;;;;4898909;29;20044;-90
2021/05/27 06:13:17;;;;;;;4.55;1.38;;;45.70;5.50;;;;;;4882494;29;20046;-91
2021/05/27 06:15:45;;;;;;;2.75;1.20;;;45.90;5.40;;;;;;4897755;29;20450;-91
2021/05/27 06:18:15;;;;;;;7.53;1.85;;;46.20;4.80;;;;;;4899007;29;20075;-92
2021/05/27 06:20:47;;;;;;;2.78;1.15;;;46.20;4.90;;;;;;4918050;29;20071;-92
2021/05/27 06:23:14;;;;;;;1.00;0.95;;;46.50;4.80;;;;;;4900303;29;20043;-92
2021/05/27 06:25:43;;;;;;;1.83;1.10;;;46.80;4.30;;;;;;4901095;29;20051;-91
2021/05/27 06:28:10;;;;;;;5.40;1.52;;;46.90;4.30;;;;;;4904973;29;20039;-92
2021/05/27 06:30:38;;;;;;;5.47;1.30;;;47.10;4.10;;;;;;4924782;29;20044;-90
2021/05/27 06:33:07;;;;;;;3.47;1.40;;;47.30;4.00;;;;;;4944398;23;20051;-91
2021/05/27 06:35:37;;;;;;;1.80;0.90;;;47.60;3.80;;;;;;4931533;29;20066;-94
2021/05/27 06:38:04;;;;;;;3.72;1.40;;;47.90;4.70;;;;;;4927272;29;20118;-95
2021/05/27 06:40:34;;;;;;;5.07;1.55;;;48.20;3.40;;;;;;4905929;29;20043;-90
2021/05/27 06:43:02;;;;;;;5.10;1.40;;;48.50;3.20;;;;;;4934094;29;20042;-91
2021/05/27 06:45:30;;;;;;;2.53;1.38;;;48.70;3.10;;;;;;4921758;29;20050;-92
2021/05/27 06:48:02;;;;;;;2.50;1.10;;;48.90;3.00;;;;;;4919441;29;20043;-91
2021/05/27 06:50:36;;;;;;;1.58;1.08;;;48.90;2.90;;;;;;4918653;29;20039;-93
2021/05/27 06:53:27;;;;;;;2.47;1.00;;;48.90;2.70;;;;;;4939111;29;20445;-93
2021/05/27 06:55:58;;;;;;;4.47;1.23;;;48.90;2.80;;;;;;4911528;29;20047;-95
2021/05/27 06:58:26;;;;;;;1.88;1.10;;;49.00;2.80;;;;;;4933305;29;20082;-94
2021/05/27 07:00:55;;;;;;;5.18;1.13;;;49.20;2.50;;;;;;4901399;29;20115;-91
2021/05/27 07:03:23;;;;;;;3.22;1.10;;;49.20;2.40;;;;;;4887709;29;20058;-94
2021/05/27 07:05:52;;;;;;;5.53;1.48;;;49.30;2.20;;;;;;4916838;29;20035;-93
2021/05/27 07:08:20;;;;;;;3.13;1.30;;;49.50;2.30;;;;;;4903788;29;20039;-93
2021/05/27 07:10:46;;;;;;;5.30;2.63;;;49.80;2.50;;;;;;4886531;29;20050;-92
2021/05/27 07:13:12;;;;;;;3.30;1.10;;;50.30;2.10;;;;;;4919290;29;20403;-90
2021/05/27 07:15:40;;;;;;;4.22;1.13;;;50.60;1.60;;;;;;4925727;29;20038;-92
2021/05/27 07:18:07;;;;;;;1.42;1.17;;;50.70;1.40;;;;;;4929147;29;20077;-92
2021/05/27 07:20:34;;;;;;;4.00;1.55;;;50.80;1.40;;;;;;4912562;29;20067;-89
2021/05/27 07:23:00;;;;;;;5.25;1.60;;;50.50;1.30;;;;;;4897669;29;20046;-87
2021/05/27 07:25:29;;;;;;;3.05;1.42;;;50.40;1.40;;;;;;4915044;29;20043;-91
2021/05/27 07:28:01;;;;;;;5.65;1.30;;;50.10;1.40;;;;;;4912466;29;20050;-91
2021/05/27 07:30:28;;;;;;;1.83;1.17;;;49.60;1.70;;;;;;4909172;29;20046;-92
2021/05/27 07:32:57;;;;;;;2.83;1.20;;;49.10;1.70;;;;;;4910207;29;20058;-91
2021/05/27 07:35:26;;;;;;;2.55;1.27;;;48.60;2.00;;;;;;4912566;29;20039;-90
2021/05/27 07:37:58;;;;;;;7.57;1.70;;;48.40;2.10;;;;;;4913724;29;20039;-93
2021/05/27 07:40:32;;;;;;;1.67;1.17;;;48.40;2.20;;;;;;4928306;29;20039;-90
2021/05/27 07:43:00;;;;;;;8.02;1.95;;;48.40;2.20;;;;;;4931035;29;20016;-91
2021/05/27 07:48:43;;;;;;;3.13;1.25;;;48.50;2.10;;;;;;5243012;23;21027;-96
2021/05/27 07:51:12;;;;;;;5.68;1.40;;;48.80;2.00;;;;;;4929249;29;20099;-93
2021/05/27 07:56:15;;;;;;;82.30;6.47;;;49.10;2.80;;;;;;4928228;28;20055;-93
2021/05/27 07:58:43;;;;;;;24.40;2.70;;;49.30;1.90;;;;;;4910603;29;20054;-91
2021/05/27 08:01:15;;;;;;;32.33;3.50;;;49.40;1.50;;;;;;4898315;29;20110;-90
2021/05/27 08:03:46;;;;;;;17.45;3.33;;;49.10;1.60;;;;;;4929598;28;20024;-91
2021/05/27 08:06:14;;;;;;;13.05;2.00;;;49.30;1.80;;;;;;4895720;28;20035;-91
2021/05/27 08:08:49;;;;;;;1.25;1.15;;;49.70;1.70;;;;;;4938212;23;20055;-94
2021/05/27 08:11:18;;;;;;;2.05;0.85;;;50.10;1.40;;;;;;4924754;29;20066;-94
2021/05/27 08:13:54;;;;;;;3.20;1.20;;;50.20;1.30;;;;;;4924654;29;20031;-95
2021/05/27 08:16:34;;;;;;;2.15;1.00;;;50.00;1.30;;;;;;4923542;29;20051;-93
2021/05/27 08:19:05;;;;;;;3.72;1.23;;;49.80;1.40;;;;;;4923968;29;20039;-92
2021/05/27 08:21:37;;;;;;;5.32;0.95;;;49.80;1.40;;;;;;4926601;29;20074;-94
2021/05/27 08:24:04;;;;;;;4.72;1.10;;;49.70;1.50;;;;;;4923644;29;20043;-92
2021/05/27 08:26:36;;;;;;;3.65;1.15;;;49.90;1.70;;;;;;4910383;29;20044;-95
2021/05/27 08:29:04;;;;;;;1.95;1.02;;;50.00;1.60;;;;;;4927862;29;20051;-95
2021/05/27 08:31:52;;;;;;;4.70;1.00;;;50.00;1.40;;;;;;4927955;29;20035;-94
2021/05/27 08:34:19;;;;;;;3.72;1.00;;;49.70;1.40;;;;;;4906888;29;20059;-94
2021/05/27 08:36:50;;;;;;;7.40;1.50;;;49.60;1.60;;;;;;4886327;29;20043;-95
2021/05/27 08:39:24;;;;;;;3.05;1.02;;;49.40;1.60;;;;;;4899495;29;20043;-94
2021/05/27 08:41:57;;;;;;;2.50;0.93;;;49.30;1.50;;;;;;4903485;29;20036;-95
2021/05/27 08:44:23;;;;;;;6.13;2.05;;;48.90;1.90;;;;;;4899963;29;20044;-93
2021/05/27 08:46:52;;;;;;;1.75;0.90;;;48.60;2.00;;;;;;4920308;23;20137;-94
2021/05/27 08:49:25;;;;;;;1.77;0.75;;;48.70;2.00;;;;;;4924883;29;20503;-96
2021/05/27 08:51:54;;;;;;;3.85;1.10;;;48.90;2.20;;;;;;4958944;23;20064;-96
2021/05/27 08:54:26;;;;;;;4.75;1.80;;;49.00;1.90;;;;;;4882701;29;20051;-96
2021/05/27 08:56:53;;;;;;;1.65;0.88;;;49.00;2.90;;;;;;4869815;29;20044;-96
2021/05/27 08:59:23;;;;;;;1.73;1.10;;;49.30;1.80;;;;;;4885386;29;20107;-96
2021/05/27 09:02:26;;;;;;;1.67;0.73;;;49.50;1.40;;;;;;4888318;29;20063;-96
2021/05/27 09:04:52;;;;;;;2.42;1.02;;;49.60;1.30;;;;;;4867787;29;20048;-93
2021/05/27 09:07:19;;;;;;;2.70;0.85;;;49.60;1.30;;;;;;4878931;29;20044;-93
2021/05/27 09:10:05;;;;;;;1.75;0.80;;;49.50;1.30;;;;;;4873447;29;20048;-93
2021/05/27 09:12:35;;;;;;;1.38;1.20;;;49.50;1.30;;;;;;4879199;29;20074;-93
2021/05/27 09:15:28;;;;;;;0.98;0.70;;;49.40;1.50;;;;;;4882499;29;20084;-94
2021/05/27 09:18:01;;;;;;;1.38;0.88;;;49.40;1.30;;;;;;4890698;29;20107;-94
2021/05/27 09:20:31;;;;;;;2.17;0.90;;;49.20;1.70;;;;;;4856126;29;20103;-90
2021/05/27 09:23:09;;;;;;;1.77;1.67;;;49.00;1.60;;;;;;4857024;29;20079;-90
2021/05/27 09:25:42;;;;;;;2.45;1.05;;;48.70;1.80;;;;;;4874746;29;20044;-94
2021/05/27 09:28:12;;;;;;;7.07;1.13;;;48.50;2.00;;;;;;4877441;29;20078;-94
2021/05/27 09:31:12;;;;;;;3.33;1.00;;;48.30;2.10;;;;;;4878185;29;20053;-93
2021/05/27 09:34:06;;;;;;;4.22;0.98;;;48.50;1.80;;;;;;4879873;29;20055;-94
2021/05/27 09:36:36;;;;;;;5.25;1.33;;;48.70;1.80;;;;;;4894028;29;20035;-93
2021/05/27 09:39:06;;;;;;;3.35;1.15;;;48.70;1.60;;;;;;4892304;29;20036;-91
2021/05/27 09:41:36;;;;;;;3.72;1.30;;;48.60;1.60;;;;;;4886007;29;20040;-95
2021/05/27 09:44:11;;;;;;;2.10;0.98;;;48.70;1.50;;;;;;4887748;29;20072;-94
2021/05/27 09:46:56;;;;;;;1.98;0.90;;;48.40;1.50;;;;;;4883759;29;20040;-93
2021/05/27 09:49:26;;;;;;;2.00;0.80;;;47.50;1.60;;;;;;4895426;29;20054;-93
2021/05/27 09:51:54;;;;;;;4.30;1.48;;;46.40;2.40;;;;;;4878840;29;20131;-93
2021/05/27 09:54:22;;;;;;;6.45;1.50;;;45.00;3.30;;;;;;4865923;29;20052;-93
2021/05/27 09:56:56;;;;;;;1.85;0.88;;;43.50;4.30;;;;;;4897352;29;20047;-91
2021/05/27 09:59:23;;;;;;;12.32;1.92;;;42.10;5.30;;;;;;4865470;29;20055;-93
2021/05/27 10:02:16;;;;;;;1.35;1.00;;;40.70;6.20;;;;;;4866561;29;20043;-95
2021/05/27 10:05:00;;;;;;;2.30;1.10;;;39.30;7.20;;;;;;4993955;23;20203;-94
2021/05/27 10:07:40;;;;;;;4.22;1.00;;;38.10;7.70;;;;;;4922275;29;20071;-95
2021/05/27 10:10:19;;;;;;;5.70;1.40;;;37.10;8.40;;;;;;4927307;29;20034;-94
2021/05/27 10:12:53;;;;;;;4.60;1.20;;;36.40;9.20;;;;;;4904967;29;20040;-95
2021/05/27 10:15:28;;;;;;;5.07;2.30;;;35.80;9.60;;;;;;4924925;29;20047;-95
2021/05/27 10:18:00;;;;;;;1.75;0.77;;;35.30;10.30;;;;;;4928077;29;20035;-91
2021/05/27 10:20:31;;;;;;;2.30;1.50;;;34.90;10.80;;;;;;4961523;23;20055;-93
2021/05/27 10:23:06;;;;;;;4.38;1.73;;;34.50;11.30;;;;;;4916837;29;20074;-94
2021/05/27 10:25:39;;;;;;;1.90;1.10;;;33.90;11.80;;;;;;4943580;23;20638;-95
2021/05/27 10:28:18;;;;;;;17.02;15.20;;;33.50;12.20;;;;;;4919081;29;20562;-92
2021/05/27 10:30:48;;;;;;;2.97;1.25;;;33.10;12.80;;;;;;4917940;29;20051;-94
2021/05/27 10:33:21;;;;;;;1.83;1.27;;;32.80;12.80;;;;;;4922067;29;20074;-96
2021/05/27 10:35:58;;;;;;;3.13;1.00;;;32.60;12.80;;;;;;4888975;29;20052;-94
2021/05/27 10:38:41;;;;;;;3.22;0.98;;;32.30;12.80;;;;;;4883294;29;20044;-91
2021/05/27 10:41:09;;;;;;;1.58;1.17;;;32.00;13.40;;;;;;4878570;29;20711;-92
2021/05/27 10:43:36;;;;;;;5.80;2.58;;;31.80;13.60;;;;;;4878559;29;20043;-92
2021/05/27 10:46:08;;;;;;;4.68;1.60;;;31.70;14.00;;;;;;4895399;29;20035;-94
2021/05/27 10:48:43;;;;;;;3.33;1.00;;;31.60;14.20;;;;;;4883469;29;20127;-95
2021/05/27 10:51:35;;;;;;;;;;;31.50;14.40;;;;;;4883302;29;20068;-93
2021/05/27 10:54:14;;;;;;;2.08;0.77;;;31.50;15.30;;;;;;4893532;29;19978;-90
2021/05/27 10:56:47;;;;;;;3.03;1.05;;;31.40;14.40;;;;;;4863736;29;20036;-92
2021/05/27 10:59:36;;;;;;;2.20;0.87;;;31.30;14.60;;;;;;4877668;29;20051;-87
2021/05/27 11:02:07;;;;;;;3.10;1.33;;;31.10;14.80;;;;;;4878804;29;20274;-91
2021/05/27 11:04:38;;;;;;;1.88;0.90;;;31.10;14.90;;;;;;4894858;29;20044;-90
2021/05/27 11:07:43;;;;;;;2.47;0.85;;;31.00;14.70;;;;;;4864900;29;20039;-91
2021/05/27 11:10:29;;;;;;;4.03;3.53;;;30.90;14.50;;;;;;4881458;29;20527;-89
2021/05/27 11:13:06;;;;;;;;;;;30.70;14.60;;;;;;4863035;29;20122;-90
2021/05/27 11:16:13;;;;;;;1.90;1.30;;;30.60;14.60;;;;;;4867120;29;19941;-94
2021/05/27 11:18:39;;;;;;;2.08;0.93;;;30.50;14.80;;;;;;4883656;29;20068;-92
2021/05/27 11:21:51;;;;;;;3.05;0.80;;;30.40;15.00;;;;;;4892541;29;20043;-89
2021/05/27 11:24:38;;;;;;;2.38;1.00;;;30.20;15.00;;;;;;4857856;29;20048;-89
2021/05/27 11:27:40;;;;;;;1.48;0.90;;;30.10;15.20;;;;;;4848111;29;20044;-90
2021/05/27 11:30:40;;;;;;;2.78;1.13;;;30.00;15.20;;;;;;4829841;29;20043;-91
2021/05/27 11:33:27;;;;;;;6.30;1.45;;;29.90;15.50;;;;;;4862699;29;20055;-94
2021/05/27 11:35:57;;;;;;;2.90;1.30;;;29.80;15.70;;;;;;4859715;29;20566;-92
2021/05/27 11:43:48;;;;;;;1.20;0.80;;;29.70;15.60;;;;;;4390664;32;20194;-93
2021/05/27 11:46:23;;;;;;;2.30;1.00;;;29.60;15.90;;;;;;5100645;28;20036;-89
2021/05/27 11:51:33;;;;;;;4.90;1.08;;;29.50;15.90;;;;;;5059468;28;20077;-92
2021/05/27 11:54:08;;;;;;;3.08;1.10;;;29.40;15.90;;;;;;5055253;28;20043;-90
2021/05/27 11:56:50;;;;;;;1.00;0.80;;;29.30;16.30;;;;;;5050328;28;20118;-91
2021/05/27 11:59:16;;;;;;;3.95;1.13;;;29.20;16.40;;;;;;5033175;28;20039;-90
2021/05/27 12:01:43;;;;;;;;;;;29.10;16.40;;;;;;5066278;28;20105;-90
2021/05/27 12:04:17;;;;;;;3.30;0.80;;;29.10;16.60;;;;;;5066644;28;20006;-92
2021/05/27 12:07:00;;;;;;;5.05;0.82;;;29.10;16.90;;;;;;5048524;28;20039;-91
2021/05/27 12:09:40;;;;;;;1.98;0.93;;;29.00;16.80;;;;;;5067696;28;20035;-92
2021/05/27 12:12:24;;;;;;;4.45;0.90;;;28.90;16.80;;;;;;5063877;28;20114;-91
2021/05/27 12:14:56;;;;;;;3.08;0.90;;;28.90;16.80;;;;;;5064459;28;20493;-91
2021/05/27 12:17:30;;;;;;;5.35;1.65;;;28.80;17.00;;;;;;5048169;28;20541;-92
2021/05/27 12:20:04;;;;;;;1.83;0.98;;;28.80;17.20;;;;;;5031892;28;20043;-91
2021/05/27 12:25:31;;;;;;;3.25;1.20;;;28.80;17.00;;;;;;4332750;32;20343;-92
2021/05/27 12:28:00;;;;;;;2.55;0.90;;;28.80;17.10;;;;;;5044205;28;20036;-93
2021/05/27 12:30:30;;;;;;;3.63;1.33;;;28.70;17.20;;;;;;5038853;28;20032;-92
2021/05/27 12:33:18;;;;;;;1.67;0.98;;;28.70;17.20;;;;;;5048000;28;20505;-89
2021/05/27 12:35:45;;;;;;;6.13;1.00;;;28.70;17.20;;;;;;5023233;28;20415;-89
2021/05/27 12:38:23;;;;;;;4.10;0.95;;;28.70;17.00;;;;;;5006616;28;20037;-91
2021/05/27 12:40:51;;;;;;;2.88;1.02;;;28.60;17.00;;;;;;5024201;28;20091;-89
2021/05/27 12:43:46;;;;;;;2.95;0.80;;;28.60;16.90;;;;;;5032346;28;20045;-90
2021/05/27 12:46:13;;;;;;;0.80;0.80;;;28.50;16.90;;;;;;4989079;28;20029;-91
2021/05/27 12:48:53;;;;;;;4.68;0.98;;;28.50;17.00;;;;;;5005237;28;20033;-89
2021/05/27 12:51:24;;;;;;;2.17;1.10;;;28.40;17.20;;;;;;5010391;28;20407;-88
2021/05/27 12:53:52;;;;;;;5.32;1.20;;;28.40;17.20;;;;;;5029126;28;20040;-91
2021/05/27 12:56:25;;;;;;;1.85;0.85;;;28.40;17.10;;;;;;5023569;28;20111;-91
2021/05/27 12:59:06;;;;;;;3.60;1.25;;;28.30;16.90;;;;;;4988587;28;20045;-88
2021/05/27 13:01:36;;;;;;;2.25;0.60;;;28.30;16.80;;;;;;5021149;28;20083;-88
2021/05/27 13:04:07;;;;;;;1.38;0.68;;;28.30;16.90;;;;;;5004650;28;20069;-90
2021/05/27 13:06:36;;;;;;;1.75;0.98;;;28.30;16.80;;;;;;5020719;28;20109;-87
2021/05/27 13:11:40;;;;;;;5.78;1.13;;;28.20;16.80;;;;;;4330827;32;1152834;-88
2021/05/27 13:14:22;;;;;;;2.78;1.10;;;28.20;17.20;;;;;;5043827;28;20028;-89
2021/05/27 13:16:49;;;;;;;1.90;0.73;;;28.20;17.20;;;;;;4995194;28;20036;-89
2021/05/27 13:19:37;;;;;;;0.80;0.80;;;28.20;17.10;;;;;;4995759;28;20062;-89
2021/05/27 13:22:05;;;;;;;2.22;0.70;;;28.10;17.00;;;;;;5042677;28;20039;-87
2021/05/27 13:24:39;;;;;;;1.80;0.90;;;28.10;17.10;;;;;;5027827;28;20029;-86
2021/05/27 13:27:22;;;;;;;2.90;1.20;;;28.10;17.00;;;;;;5011451;28;20487;-88
2021/05/27 13:30:00;;;;;;;8.15;1.75;;;28.10;17.20;;;;;;5026831;28;20070;-87
2021/05/27 13:32:41;;;;;;;1.65;1.00;;;28.00;17.40;;;;;;5026988;28;20032;-87
2021/05/27 13:35:24;;;;;;;4.22;1.17;;;28.00;17.20;;;;;;5027790;28;20032;-87
2021/05/27 13:37:59;;;;;;;4.85;0.80;;;28.00;17.60;;;;;;5021740;28;20048;-92
2021/05/27 13:40:33;;;;;;;3.92;1.40;;;28.00;17.40;;;;;;5027437;28;20040;-91
2021/05/27 13:43:05;;;;;;;0.88;0.88;;;28.00;17.30;;;;;;5015233;28;20039;-92
2021/05/27 13:45:34;;;;;;;4.57;0.85;;;28.00;17.20;;;;;;5001356;28;20120;-90
2021/05/27 13:48:01;;;;;;;4.95;0.90;;;28.00;17.50;;;;;;4993861;28;20062;-90
2021/05/27 13:50:30;;;;;;;1.70;1.00;;;28.00;17.50;;;;;;5010070;28;20040;-90